sensor_id;sensor_type;location;lat;lon;timestamp;temperature;humidity
3626;DHT22;1827;50.534;8.316;2022-11-11T00:03:46;2.40;99.90
3626;DHT22;1827;50.534;8.316;2022-11-11T00:06:30;2.30;99.90
3626;DHT22;1827;50.534;8.316;2022-11-11T00:09:15;2.30;99.90
3626;DHT22;1827;50.534;8.316;2022-11-11T00:11:59;2.30;99.90
3626;DHT22;1827;50.534;8.316;2022-11-11T00:14:43;2.30;99.90
3626;DHT22;1827;50.534;8.316;2022-11-11T00:17:28;2.20;99.90
3626;DHT22;1827;50.534;8.316;2022-11-11T00:20:31;2.20;99.90
3626;DHT22;1827;50.534;8.316;2022-11-11T00:23:34;2.20;99.90
3626;DHT22;1827;50.534;8.316;2022-11-11T00:26:37;2.10;99.90
3626;DHT22;1827;50.534;8.316;2022-11-11T00:29:22;2.30;99.90
3626;DHT22;1827;50.534;8.316;2022-11-11T00:32:08;2.50;99.90
3626;DHT22;1827;50.534;8.316;2022-11-11T00:35:09;2.40;99.90
3626;DHT22;1827;50.534;8.316;2022-11-11T00:38:13;2.40;99.90
3626;DHT22;1827;50.534;8.316;2022-11-11T00:41:18;2.40;99.90
3626;DHT22;1827;50.534;8.316;2022-11-11T00:44:03;2.30;99.90
3626;DHT22;1827;50.534;8.316;2022-11-11T00:46:47;2.60;99.90
3626;DHT22;1827;50.534;8.316;2022-11-11T00:49:50;2.50;99.90
3626;DHT22;1827;50.534;8.316;2022-11-11T00:52:54;2.40;99.90
3626;DHT22;1827;50.534;8.316;2022-11-11T00:55:38;2.30;99.90
3626;DHT22;1827;50.534;8.316;2022-11-11T00:58:22;2.30;99.90
3626;DHT22;1827;50.534;8.316;2022-11-11T01:01:06;2.20;99.90
3626;DHT22;1827;50.534;8.316;2022-11-11T01:03:51;2.30;99.90
3626;DHT22;1827;50.534;8.316;2022-11-11T01:06:35;2.30;99.90
3626;DHT22;1827;50.534;8.316;2022-11-11T01:09:19;2.30;99.90
3626;DHT22;1827;50.534;8.316;2022-11-11T01:12:04;2.30;99.90
3626;DHT22;1827;50.534;8.316;2022-11-11T01:14:48;2.40;99.90
3626;DHT22;1827;50.534;8.316;2022-11-11T01:17:32;2.40;99.90
3626;DHT22;1827;50.534;8.316;2022-11-11T01:20:16;2.40;99.90
3626;DHT22;1827;50.534;8.316;2022-11-11T01:23:00;2.40;99.90
3626;DHT22;1827;50.534;8.316;2022-11-11T01:25:44;2.50;99.90
3626;DHT22;1827;50.534;8.316;2022-11-11T01:28:29;2.40;99.90
3626;DHT22;1827;50.534;8.316;2022-11-11T01:31:14;2.40;99.90
3626;DHT22;1827;50.534;8.316;2022-11-11T01:33:58;2.50;99.90
3626;DHT22;1827;50.534;8.316;2022-11-11T01:36:42;2.50;99.90
3626;DHT22;1827;50.534;8.316;2022-11-11T01:39:27;2.50;99.90
3626;DHT22;1827;50.534;8.316;2022-11-11T01:42:11;2.60;99.90
3626;DHT22;1827;50.534;8.316;2022-11-11T01:44:55;2.60;99.90
3626;DHT22;1827;50.534;8.316;2022-11-11T01:47:39;2.50;99.90
3626;DHT22;1827;50.534;8.316;2022-11-11T01:50:47;2.50;99.90
3626;DHT22;1827;50.534;8.316;2022-11-11T01:53:31;2.60;99.90
3626;DHT22;1827;50.534;8.316;2022-11-11T01:56:15;2.70;99.90
3626;DHT22;1827;50.534;8.316;2022-11-11T01:59:01;2.80;99.90
3626;DHT22;1827;50.534;8.316;2022-11-11T02:01:46;2.80;99.90
3626;DHT22;1827;50.534;8.316;2022-11-11T02:04:31;2.80;99.90
3626;DHT22;1827;50.534;8.316;2022-11-11T02:07:35;2.80;99.90
3626;DHT22;1827;50.534;8.316;2022-11-11T02:10:21;3.00;99.90
3626;DHT22;1827;50.534;8.316;2022-11-11T02:13:11;3.00;99.90
3626;DHT22;1827;50.534;8.316;2022-11-11T02:16:14;3.10;99.90
3626;DHT22;1827;50.534;8.316;2022-11-11T02:18:59;3.00;99.90
3626;DHT22;1827;50.534;8.316;2022-11-11T02:21:46;3.00;99.90
3626;DHT22;1827;50.534;8.316;2022-11-11T02:24:34;3.00;99.90
3626;DHT22;1827;50.534;8.316;2022-11-11T02:27:18;3.00;99.90
3626;DHT22;1827;50.534;8.316;2022-11-11T02:30:04;3.10;99.90
3626;DHT22;1827;50.534;8.316;2022-11-11T02:32:51;3.20;99.90
3626;DHT22;1827;50.534;8.316;2022-11-11T02:35:36;3.20;99.90
3626;DHT22;1827;50.534;8.316;2022-11-11T02:38:21;3.20;99.90
3626;DHT22;1827;50.534;8.316;2022-11-11T02:41:05;3.10;99.90
3626;DHT22;1827;50.534;8.316;2022-11-11T02:44:08;3.20;99.90
3626;DHT22;1827;50.534;8.316;2022-11-11T02:46:53;3.20;99.90
3626;DHT22;1827;50.534;8.316;2022-11-11T02:49:37;3.20;99.90
3626;DHT22;1827;50.534;8.316;2022-11-11T02:52:21;3.20;99.90
3626;DHT22;1827;50.534;8.316;2022-11-11T02:55:06;3.20;99.90
3626;DHT22;1827;50.534;8.316;2022-11-11T02:57:50;3.40;99.90
3626;DHT22;1827;50.534;8.316;2022-11-11T03:00:34;3.30;99.90
3626;DHT22;1827;50.534;8.316;2022-11-11T03:03:18;3.50;99.90
3626;DHT22;1827;50.534;8.316;2022-11-11T03:06:03;3.50;99.90
3626;DHT22;1827;50.534;8.316;2022-11-11T03:08:47;3.20;99.90
3626;DHT22;1827;50.534;8.316;2022-11-11T03:11:31;3.30;99.90
3626;DHT22;1827;50.534;8.316;2022-11-11T03:14:16;3.40;99.90
3626;DHT22;1827;50.534;8.316;2022-11-11T03:17:00;3.40;99.90
3626;DHT22;1827;50.534;8.316;2022-11-11T03:20:08;3.40;99.90
3626;DHT22;1827;50.534;8.316;2022-11-11T03:23:12;3.40;99.90
3626;DHT22;1827;50.534;8.316;2022-11-11T03:25:56;3.40;99.90
3626;DHT22;1827;50.534;8.316;2022-11-11T03:28:40;3.30;99.90
3626;DHT22;1827;50.534;8.316;2022-11-11T03:31:24;3.30;99.90
3626;DHT22;1827;50.534;8.316;2022-11-11T03:34:09;3.30;99.90
3626;DHT22;1827;50.534;8.316;2022-11-11T03:37:03;3.40;99.90
3626;DHT22;1827;50.534;8.316;2022-11-11T03:40:07;3.50;99.90
3626;DHT22;1827;50.534;8.316;2022-11-11T03:42:51;3.40;99.90
3626;DHT22;1827;50.534;8.316;2022-11-11T03:45:35;3.40;99.90
3626;DHT22;1827;50.534;8.316;2022-11-11T03:48:20;3.40;99.90
3626;DHT22;1827;50.534;8.316;2022-11-11T03:51:04;3.40;99.90
3626;DHT22;1827;50.534;8.316;2022-11-11T03:53:48;3.40;99.90
3626;DHT22;1827;50.534;8.316;2022-11-11T03:56:32;3.40;99.90
3626;DHT22;1827;50.534;8.316;2022-11-11T03:59:17;3.50;99.90
3626;DHT22;1827;50.534;8.316;2022-11-11T04:02:01;3.60;99.90
3626;DHT22;1827;50.534;8.316;2022-11-11T04:05:04;3.50;99.90
3626;DHT22;1827;50.534;8.316;2022-11-11T04:08:11;3.50;99.90
3626;DHT22;1827;50.534;8.316;2022-11-11T04:11:16;3.40;99.90
3626;DHT22;1827;50.534;8.316;2022-11-11T04:14:09;3.30;99.90
3626;DHT22;1827;50.534;8.316;2022-11-11T04:17:12;3.30;99.90
3626;DHT22;1827;50.534;8.316;2022-11-11T04:19:56;3.30;99.90
3626;DHT22;1827;50.534;8.316;2022-11-11T04:23:00;3.40;99.90
3626;DHT22;1827;50.534;8.316;2022-11-11T04:25:44;3.40;99.90
3626;DHT22;1827;50.534;8.316;2022-11-11T04:28:36;3.40;99.90
3626;DHT22;1827;50.534;8.316;2022-11-11T04:31:39;3.50;99.90
3626;DHT22;1827;50.534;8.316;2022-11-11T04:34:45;3.50;99.90
3626;DHT22;1827;50.534;8.316;2022-11-11T04:37:30;3.40;99.90
3626;DHT22;1827;50.534;8.316;2022-11-11T04:40:16;3.40;99.90
3626;DHT22;1827;50.534;8.316;2022-11-11T04:43:19;3.40;99.90
3626;DHT22;1827;50.534;8.316;2022-11-11T04:46:04;3.40;99.90
3626;DHT22;1827;50.534;8.316;2022-11-11T04:48:48;3.50;99.90
3626;DHT22;1827;50.534;8.316;2022-11-11T04:51:32;3.50;99.90
3626;DHT22;1827;50.534;8.316;2022-11-11T04:54:35;3.60;99.90
3626;DHT22;1827;50.534;8.316;2022-11-11T04:57:43;3.50;99.90
3626;DHT22;1827;50.534;8.316;2022-11-11T05:00:28;3.50;99.90
3626;DHT22;1827;50.534;8.316;2022-11-11T05:03:12;3.50;99.90
3626;DHT22;1827;50.534;8.316;2022-11-11T05:06:00;3.60;99.90
3626;DHT22;1827;50.534;8.316;2022-11-11T05:09:16;3.60;99.90
3626;DHT22;1827;50.534;8.316;2022-11-11T05:12:00;3.50;99.90
3626;DHT22;1827;50.534;8.316;2022-11-11T05:14:44;3.60;99.90
3626;DHT22;1827;50.534;8.316;2022-11-11T05:17:47;3.40;99.90
3626;DHT22;1827;50.534;8.316;2022-11-11T05:20:51;3.30;99.90
3626;DHT22;1827;50.534;8.316;2022-11-11T05:23:54;3.40;99.90
3626;DHT22;1827;50.534;8.316;2022-11-11T05:26:57;3.30;99.90
3626;DHT22;1827;50.534;8.316;2022-11-11T05:29:41;3.40;99.90
3626;DHT22;1827;50.534;8.316;2022-11-11T05:32:25;3.50;99.90
3626;DHT22;1827;50.534;8.316;2022-11-11T05:35:10;3.50;99.90
3626;DHT22;1827;50.534;8.316;2022-11-11T05:38:00;3.50;99.90
3626;DHT22;1827;50.534;8.316;2022-11-11T05:41:03;3.60;99.90
3626;DHT22;1827;50.534;8.316;2022-11-11T05:43:47;3.70;99.90
3626;DHT22;1827;50.534;8.316;2022-11-11T05:46:31;3.70;99.90
3626;DHT22;1827;50.534;8.316;2022-11-11T05:49:15;3.70;99.90
3626;DHT22;1827;50.534;8.316;2022-11-11T05:51:59;3.70;99.90
3626;DHT22;1827;50.534;8.316;2022-11-11T05:54:44;3.70;99.90
3626;DHT22;1827;50.534;8.316;2022-11-11T05:57:28;3.60;99.90
3626;DHT22;1827;50.534;8.316;2022-11-11T06:00:13;3.60;99.90
3626;DHT22;1827;50.534;8.316;2022-11-11T06:03:03;3.60;99.90
3626;DHT22;1827;50.534;8.316;2022-11-11T06:05:48;3.50;99.90
3626;DHT22;1827;50.534;8.316;2022-11-11T06:08:33;3.50;99.90
3626;DHT22;1827;50.534;8.316;2022-11-11T06:11:17;3.60;99.90
3626;DHT22;1827;50.534;8.316;2022-11-11T06:14:02;3.80;99.90
3626;DHT22;1827;50.534;8.316;2022-11-11T06:16:46;3.70;99.90
3626;DHT22;1827;50.534;8.316;2022-11-11T06:19:30;3.60;99.90
3626;DHT22;1827;50.534;8.316;2022-11-11T06:22:14;3.60;99.90
3626;DHT22;1827;50.534;8.316;2022-11-11T06:25:18;3.70;99.90
3626;DHT22;1827;50.534;8.316;2022-11-11T06:28:22;3.70;99.90
3626;DHT22;1827;50.534;8.316;2022-11-11T06:31:07;3.70;99.90
3626;DHT22;1827;50.534;8.316;2022-11-11T06:33:52;3.70;99.90
3626;DHT22;1827;50.534;8.316;2022-11-11T06:36:37;3.70;99.90
3626;DHT22;1827;50.534;8.316;2022-11-11T06:39:21;3.70;99.90
3626;DHT22;1827;50.534;8.316;2022-11-11T06:42:05;3.70;99.90
3626;DHT22;1827;50.534;8.316;2022-11-11T06:44:49;3.60;99.90
3626;DHT22;1827;50.534;8.316;2022-11-11T06:47:34;3.60;99.90
3626;DHT22;1827;50.534;8.316;2022-11-11T06:50:18;3.70;99.90
3626;DHT22;1827;50.534;8.316;2022-11-11T06:53:03;3.70;99.90
3626;DHT22;1827;50.534;8.316;2022-11-11T06:55:50;3.70;99.90
3626;DHT22;1827;50.534;8.316;2022-11-11T06:58:34;3.80;99.90
3626;DHT22;1827;50.534;8.316;2022-11-11T07:01:18;3.60;99.90
3626;DHT22;1827;50.534;8.316;2022-11-11T07:04:03;3.60;99.90
3626;DHT22;1827;50.534;8.316;2022-11-11T07:06:47;3.60;99.90
3626;DHT22;1827;50.534;8.316;2022-11-11T07:09:31;3.60;99.90
3626;DHT22;1827;50.534;8.316;2022-11-11T07:12:16;3.70;99.90
3626;DHT22;1827;50.534;8.316;2022-11-11T07:15:00;3.70;99.90
3626;DHT22;1827;50.534;8.316;2022-11-11T07:17:44;3.80;99.90
3626;DHT22;1827;50.534;8.316;2022-11-11T07:20:29;3.50;99.90
3626;DHT22;1827;50.534;8.316;2022-11-11T07:23:13;3.40;99.90
3626;DHT22;1827;50.534;8.316;2022-11-11T07:25:59;3.40;99.90
3626;DHT22;1827;50.534;8.316;2022-11-11T07:28:43;3.40;99.90
3626;DHT22;1827;50.534;8.316;2022-11-11T07:31:27;3.30;99.90
3626;DHT22;1827;50.534;8.316;2022-11-11T07:34:12;3.30;99.90
3626;DHT22;1827;50.534;8.316;2022-11-11T07:36:57;3.20;99.90
3626;DHT22;1827;50.534;8.316;2022-11-11T07:39:41;3.30;99.90
3626;DHT22;1827;50.534;8.316;2022-11-11T07:42:25;3.20;99.90
3626;DHT22;1827;50.534;8.316;2022-11-11T07:45:10;3.30;99.90
3626;DHT22;1827;50.534;8.316;2022-11-11T07:47:55;3.30;99.90
3626;DHT22;1827;50.534;8.316;2022-11-11T07:50:39;3.30;99.90
3626;DHT22;1827;50.534;8.316;2022-11-11T07:53:24;3.40;99.90
3626;DHT22;1827;50.534;8.316;2022-11-11T07:56:09;3.10;99.90
3626;DHT22;1827;50.534;8.316;2022-11-11T07:58:53;3.30;99.90
3626;DHT22;1827;50.534;8.316;2022-11-11T08:01:38;3.60;99.90
3626;DHT22;1827;50.534;8.316;2022-11-11T08:04:22;3.70;99.90
3626;DHT22;1827;50.534;8.316;2022-11-11T08:07:06;3.70;99.90
3626;DHT22;1827;50.534;8.316;2022-11-11T08:09:50;3.40;99.90
3626;DHT22;1827;50.534;8.316;2022-11-11T08:12:35;3.20;99.90
3626;DHT22;1827;50.534;8.316;2022-11-11T08:15:38;3.50;99.90
3626;DHT22;1827;50.534;8.316;2022-11-11T08:18:22;3.70;99.90
3626;DHT22;1827;50.534;8.316;2022-11-11T08:21:06;3.80;99.90
3626;DHT22;1827;50.534;8.316;2022-11-11T08:23:51;3.80;99.90
3626;DHT22;1827;50.534;8.316;2022-11-11T08:26:35;3.90;99.90
3626;DHT22;1827;50.534;8.316;2022-11-11T08:29:19;3.90;99.90
3626;DHT22;1827;50.534;8.316;2022-11-11T08:32:03;4.00;99.90
3626;DHT22;1827;50.534;8.316;2022-11-11T08:34:48;4.00;99.90
3626;DHT22;1827;50.534;8.316;2022-11-11T08:37:32;4.20;99.90
3626;DHT22;1827;50.534;8.316;2022-11-11T08:40:16;4.40;99.90
3626;DHT22;1827;50.534;8.316;2022-11-11T08:43:01;4.30;99.90
3626;DHT22;1827;50.534;8.316;2022-11-11T08:45:45;4.30;99.90
3626;DHT22;1827;50.534;8.316;2022-11-11T08:48:30;4.40;99.90
3626;DHT22;1827;50.534;8.316;2022-11-11T08:51:14;4.30;99.90
3626;DHT22;1827;50.534;8.316;2022-11-11T08:53:59;4.50;99.90
3626;DHT22;1827;50.534;8.316;2022-11-11T08:56:43;4.60;99.90
3626;DHT22;1827;50.534;8.316;2022-11-11T08:59:27;4.70;99.90
3626;DHT22;1827;50.534;8.316;2022-11-11T09:02:11;4.70;99.90
3626;DHT22;1827;50.534;8.316;2022-11-11T09:04:56;4.60;99.90
3626;DHT22;1827;50.534;8.316;2022-11-11T09:07:40;4.80;99.90
3626;DHT22;1827;50.534;8.316;2022-11-11T09:10:24;4.80;99.90
3626;DHT22;1827;50.534;8.316;2022-11-11T09:13:09;5.00;99.90
3626;DHT22;1827;50.534;8.316;2022-11-11T09:15:53;4.90;99.90
3626;DHT22;1827;50.534;8.316;2022-11-11T09:18:38;4.80;99.90
3626;DHT22;1827;50.534;8.316;2022-11-11T09:21:22;5.00;99.90
3626;DHT22;1827;50.534;8.316;2022-11-11T09:24:06;5.10;99.90
3626;DHT22;1827;50.534;8.316;2022-11-11T09:26:51;5.10;99.90
3626;DHT22;1827;50.534;8.316;2022-11-11T09:29:35;5.10;99.90
3626;DHT22;1827;50.534;8.316;2022-11-11T09:32:20;5.20;99.90
3626;DHT22;1827;50.534;8.316;2022-11-11T09:35:04;5.50;99.90
3626;DHT22;1827;50.534;8.316;2022-11-11T09:37:52;5.60;99.90
3626;DHT22;1827;50.534;8.316;2022-11-11T09:40:48;5.90;99.90
3626;DHT22;1827;50.534;8.316;2022-11-11T09:43:35;5.40;99.90
3626;DHT22;1827;50.534;8.316;2022-11-11T09:46:44;5.30;99.90
3626;DHT22;1827;50.534;8.316;2022-11-11T09:49:43;5.00;99.90
3626;DHT22;1827;50.534;8.316;2022-11-11T09:55:21;5.50;99.90
3626;DHT22;1827;50.534;8.316;2022-11-11T09:58:11;5.10;99.90
3626;DHT22;1827;50.534;8.316;2022-11-11T10:00:58;4.60;99.90
3626;DHT22;1827;50.534;8.316;2022-11-11T10:03:49;5.00;99.90
3626;DHT22;1827;50.534;8.316;2022-11-11T10:06:35;5.00;99.90
3626;DHT22;1827;50.534;8.316;2022-11-11T10:09:21;5.20;99.90
3626;DHT22;1827;50.534;8.316;2022-11-11T10:12:09;5.00;99.90
3626;DHT22;1827;50.534;8.316;2022-11-11T10:14:54;5.60;99.90
3626;DHT22;1827;50.534;8.316;2022-11-11T10:20:41;5.20;99.90
3626;DHT22;1827;50.534;8.316;2022-11-11T10:23:29;5.10;99.90
3626;DHT22;1827;50.534;8.316;2022-11-11T10:26:17;5.50;99.90
3626;DHT22;1827;50.534;8.316;2022-11-11T10:29:03;5.20;99.90
3626;DHT22;1827;50.534;8.316;2022-11-11T10:32:02;5.30;99.90
3626;DHT22;1827;50.534;8.316;2022-11-11T10:34:48;5.20;99.90
3626;DHT22;1827;50.534;8.316;2022-11-11T10:37:37;5.10;99.90
3626;DHT22;1827;50.534;8.316;2022-11-11T10:40:28;5.20;99.90
3626;DHT22;1827;50.534;8.316;2022-11-11T10:43:26;5.40;99.90
3626;DHT22;1827;50.534;8.316;2022-11-11T10:49:06;5.50;99.90
3626;DHT22;1827;50.534;8.316;2022-11-11T10:52:09;5.90;99.90
3626;DHT22;1827;50.534;8.316;2022-11-11T10:54:58;6.30;99.90
3626;DHT22;1827;50.534;8.316;2022-11-11T10:57:59;6.20;99.90
3626;DHT22;1827;50.534;8.316;2022-11-11T11:00:46;5.90;99.90
3626;DHT22;1827;50.534;8.316;2022-11-11T11:03:32;6.10;99.90
3626;DHT22;1827;50.534;8.316;2022-11-11T11:06:19;6.50;99.90
3626;DHT22;1827;50.534;8.316;2022-11-11T11:12:00;6.50;99.90
3626;DHT22;1827;50.534;8.316;2022-11-11T11:14:50;6.30;99.90
3626;DHT22;1827;50.534;8.316;2022-11-11T11:17:46;6.20;99.90
3626;DHT22;1827;50.534;8.316;2022-11-11T11:20:33;6.20;99.90
3626;DHT22;1827;50.534;8.316;2022-11-11T11:23:22;6.30;99.90
3626;DHT22;1827;50.534;8.316;2022-11-11T11:26:17;6.50;99.90
3626;DHT22;1827;50.534;8.316;2022-11-11T11:29:02;6.60;99.90
3626;DHT22;1827;50.534;8.316;2022-11-11T11:31:46;6.40;99.90
3626;DHT22;1827;50.534;8.316;2022-11-11T11:34:44;6.70;99.90
3626;DHT22;1827;50.534;8.316;2022-11-11T11:37:29;6.50;99.90
3626;DHT22;1827;50.534;8.316;2022-11-11T11:40:13;6.70;99.90
3626;DHT22;1827;50.534;8.316;2022-11-11T11:42:58;6.80;99.90
3626;DHT22;1827;50.534;8.316;2022-11-11T11:45:42;6.60;99.90
3626;DHT22;1827;50.534;8.316;2022-11-11T11:52:14;6.60;99.90
3626;DHT22;1827;50.534;8.316;2022-11-11T12:00:45;7.10;99.90
3626;DHT22;1827;50.534;8.316;2022-11-11T12:09:45;7.30;99.90
3626;DHT22;1827;50.534;8.316;2022-11-11T12:12:37;7.30;99.90
3626;DHT22;1827;50.534;8.316;2022-11-11T12:15:26;7.30;99.90
3626;DHT22;1827;50.534;8.316;2022-11-11T12:21:16;7.50;99.90
3626;DHT22;1827;50.534;8.316;2022-11-11T12:26:55;7.60;99.90
3626;DHT22;1827;50.534;8.316;2022-11-11T12:30:01;7.60;99.90
3626;DHT22;1827;50.534;8.316;2022-11-11T12:33:09;7.70;99.90
3626;DHT22;1827;50.534;8.316;2022-11-11T12:39:08;7.70;99.90
3626;DHT22;1827;50.534;8.316;2022-11-11T12:44:40;7.80;99.90
3626;DHT22;1827;50.534;8.316;2022-11-11T12:56:08;7.80;99.90
3626;DHT22;1827;50.534;8.316;2022-11-11T12:59:14;7.90;99.90
3626;DHT22;1827;50.534;8.316;2022-11-11T13:02:11;7.90;99.90
3626;DHT22;1827;50.534;8.316;2022-11-11T13:05:09;7.90;99.90
3626;DHT22;1827;50.534;8.316;2022-11-11T13:16:35;8.00;99.90
3626;DHT22;1827;50.534;8.316;2022-11-11T13:19:23;7.90;99.90
3626;DHT22;1827;50.534;8.316;2022-11-11T13:24:56;7.90;99.90
3626;DHT22;1827;50.534;8.316;2022-11-11T13:27:43;8.00;99.90
3626;DHT22;1827;50.534;8.316;2022-11-11T13:30:44;7.80;99.90
3626;DHT22;1827;50.534;8.316;2022-11-11T13:33:43;7.90;99.90
3626;DHT22;1827;50.534;8.316;2022-11-11T13:36:28;7.90;99.90
3626;DHT22;1827;50.534;8.316;2022-11-11T13:39:59;7.90;99.90
3626;DHT22;1827;50.534;8.316;2022-11-11T13:42:25;7.90;99.90
3626;DHT22;1827;50.534;8.316;2022-11-11T13:45:18;7.90;99.90
3626;DHT22;1827;50.534;8.316;2022-11-11T13:48:05;7.90;99.90
3626;DHT22;1827;50.534;8.316;2022-11-11T13:50:50;7.90;99.90
3626;DHT22;1827;50.534;8.316;2022-11-11T13:53:35;7.90;99.90
3626;DHT22;1827;50.534;8.316;2022-11-11T13:56:42;7.90;99.90
3626;DHT22;1827;50.534;8.316;2022-11-11T13:59:28;8.00;99.90
3626;DHT22;1827;50.534;8.316;2022-11-11T14:16:07;7.90;99.90
3626;DHT22;1827;50.534;8.316;2022-11-11T14:18:52;8.00;99.90
3626;DHT22;1827;50.534;8.316;2022-11-11T14:21:41;8.00;99.90
3626;DHT22;1827;50.534;8.316;2022-11-11T14:24:34;7.90;99.90
3626;DHT22;1827;50.534;8.316;2022-11-11T14:27:24;7.80;99.90
3626;DHT22;1827;50.534;8.316;2022-11-11T14:30:09;7.70;99.90
3626;DHT22;1827;50.534;8.316;2022-11-11T14:33:01;7.70;99.90
3626;DHT22;1827;50.534;8.316;2022-11-11T14:35:50;7.70;99.90
3626;DHT22;1827;50.534;8.316;2022-11-11T14:38:50;7.60;99.90
3626;DHT22;1827;50.534;8.316;2022-11-11T14:41:48;7.60;99.90
3626;DHT22;1827;50.534;8.316;2022-11-11T14:47:18;7.50;99.90
3626;DHT22;1827;50.534;8.316;2022-11-11T14:50:02;7.50;99.90
3626;DHT22;1827;50.534;8.316;2022-11-11T14:52:46;7.50;99.90
3626;DHT22;1827;50.534;8.316;2022-11-11T14:55:34;7.40;99.90
3626;DHT22;1827;50.534;8.316;2022-11-11T14:58:21;7.40;99.90
3626;DHT22;1827;50.534;8.316;2022-11-11T15:01:14;7.30;99.90
3626;DHT22;1827;50.534;8.316;2022-11-11T15:04:01;7.30;99.90
3626;DHT22;1827;50.534;8.316;2022-11-11T15:06:47;7.30;99.90
3626;DHT22;1827;50.534;8.316;2022-11-11T15:15:20;7.20;99.90
3626;DHT22;1827;50.534;8.316;2022-11-11T15:21:01;7.10;99.90
3626;DHT22;1827;50.534;8.316;2022-11-11T15:23:49;7.10;99.90
3626;DHT22;1827;50.534;8.316;2022-11-11T15:26:40;7.10;99.90
3626;DHT22;1827;50.534;8.316;2022-11-11T15:35:21;7.10;99.90
3626;DHT22;1827;50.534;8.316;2022-11-11T15:38:11;7.10;99.90
3626;DHT22;1827;50.534;8.316;2022-11-11T15:40:56;7.00;99.90
3626;DHT22;1827;50.534;8.316;2022-11-11T15:43:44;7.00;99.90
3626;DHT22;1827;50.534;8.316;2022-11-11T15:46:28;7.00;99.90
3626;DHT22;1827;50.534;8.316;2022-11-11T15:49:14;7.00;99.90
3626;DHT22;1827;50.534;8.316;2022-11-11T15:51:58;7.00;99.90
3626;DHT22;1827;50.534;8.316;2022-11-11T15:54:42;6.90;99.90
3626;DHT22;1827;50.534;8.316;2022-11-11T15:57:30;6.90;99.90
3626;DHT22;1827;50.534;8.316;2022-11-11T16:00:33;6.90;99.90
3626;DHT22;1827;50.534;8.316;2022-11-11T16:03:22;6.90;99.90
3626;DHT22;1827;50.534;8.316;2022-11-11T16:06:11;6.80;99.90
3626;DHT22;1827;50.534;8.316;2022-11-11T16:08:57;6.80;99.90
3626;DHT22;1827;50.534;8.316;2022-11-11T16:11:41;6.90;99.90
3626;DHT22;1827;50.534;8.316;2022-11-11T16:14:41;6.80;99.90
3626;DHT22;1827;50.534;8.316;2022-11-11T16:17:29;6.80;99.90
3626;DHT22;1827;50.534;8.316;2022-11-11T16:20:14;6.80;99.90
3626;DHT22;1827;50.534;8.316;2022-11-11T16:22:59;6.70;99.90
3626;DHT22;1827;50.534;8.316;2022-11-11T16:25:45;6.70;99.90
3626;DHT22;1827;50.534;8.316;2022-11-11T16:28:36;6.50;99.90
3626;DHT22;1827;50.534;8.316;2022-11-11T16:31:28;6.60;99.90
3626;DHT22;1827;50.534;8.316;2022-11-11T16:37:11;6.60;99.90
3626;DHT22;1827;50.534;8.316;2022-11-11T16:39:56;6.50;99.90
3626;DHT22;1827;50.534;8.316;2022-11-11T16:46:05;6.40;99.90
3626;DHT22;1827;50.534;8.316;2022-11-11T16:48:50;6.30;99.90
3626;DHT22;1827;50.534;8.316;2022-11-11T16:51:44;6.40;99.90
3626;DHT22;1827;50.534;8.316;2022-11-11T16:54:29;6.40;99.90
3626;DHT22;1827;50.534;8.316;2022-11-11T16:57:23;6.50;99.90
3626;DHT22;1827;50.534;8.316;2022-11-11T17:00:11;6.40;99.90
3626;DHT22;1827;50.534;8.316;2022-11-11T17:06:06;6.40;99.90
3626;DHT22;1827;50.534;8.316;2022-11-11T17:08:51;6.40;99.90
3626;DHT22;1827;50.534;8.316;2022-11-11T17:14:19;6.30;99.90
3626;DHT22;1827;50.534;8.316;2022-11-11T17:17:04;6.30;99.90
3626;DHT22;1827;50.534;8.316;2022-11-11T17:19:49;6.30;99.90
3626;DHT22;1827;50.534;8.316;2022-11-11T17:22:34;6.30;99.90
3626;DHT22;1827;50.534;8.316;2022-11-11T17:25:18;6.30;99.90
3626;DHT22;1827;50.534;8.316;2022-11-11T17:28:02;6.20;99.90
3626;DHT22;1827;50.534;8.316;2022-11-11T17:30:46;6.30;99.90
3626;DHT22;1827;50.534;8.316;2022-11-11T17:33:30;6.30;99.90
3626;DHT22;1827;50.534;8.316;2022-11-11T17:36:15;6.40;99.90
3626;DHT22;1827;50.534;8.316;2022-11-11T17:38:59;6.30;99.90
3626;DHT22;1827;50.534;8.316;2022-11-11T17:41:43;6.40;99.90
3626;DHT22;1827;50.534;8.316;2022-11-11T17:44:27;6.40;99.90
3626;DHT22;1827;50.534;8.316;2022-11-11T17:47:11;6.50;99.90
3626;DHT22;1827;50.534;8.316;2022-11-11T17:49:56;6.50;99.90
3626;DHT22;1827;50.534;8.316;2022-11-11T17:52:40;6.50;99.90
3626;DHT22;1827;50.534;8.316;2022-11-11T17:55:25;6.40;99.90
3626;DHT22;1827;50.534;8.316;2022-11-11T17:58:10;6.50;99.90
3626;DHT22;1827;50.534;8.316;2022-11-11T18:01:03;6.40;99.90
3626;DHT22;1827;50.534;8.316;2022-11-11T18:03:47;6.30;99.90
3626;DHT22;1827;50.534;8.316;2022-11-11T18:06:32;6.40;99.90
3626;DHT22;1827;50.534;8.316;2022-11-11T18:09:16;6.40;99.90
3626;DHT22;1827;50.534;8.316;2022-11-11T18:12:00;6.30;99.90
3626;DHT22;1827;50.534;8.316;2022-11-11T18:14:44;6.20;99.90
3626;DHT22;1827;50.534;8.316;2022-11-11T18:17:29;6.10;99.90
3626;DHT22;1827;50.534;8.316;2022-11-11T18:20:13;6.10;99.90
3626;DHT22;1827;50.534;8.316;2022-11-11T18:22:57;6.10;99.90
3626;DHT22;1827;50.534;8.316;2022-11-11T18:25:42;6.20;99.90
3626;DHT22;1827;50.534;8.316;2022-11-11T18:28:30;6.10;99.90
3626;DHT22;1827;50.534;8.316;2022-11-11T18:31:15;6.10;99.90
3626;DHT22;1827;50.534;8.316;2022-11-11T18:33:59;6.20;99.90
3626;DHT22;1827;50.534;8.316;2022-11-11T18:36:43;6.20;99.90
3626;DHT22;1827;50.534;8.316;2022-11-11T18:39:27;5.90;99.90
3626;DHT22;1827;50.534;8.316;2022-11-11T18:42:12;6.00;99.90
3626;DHT22;1827;50.534;8.316;2022-11-11T18:44:56;6.10;99.90
3626;DHT22;1827;50.534;8.316;2022-11-11T18:47:40;6.30;99.90
3626;DHT22;1827;50.534;8.316;2022-11-11T18:50:24;6.00;99.90
3626;DHT22;1827;50.534;8.316;2022-11-11T18:53:09;6.00;99.90
3626;DHT22;1827;50.534;8.316;2022-11-11T18:55:53;5.90;99.90
3626;DHT22;1827;50.534;8.316;2022-11-11T18:58:37;5.90;99.90
3626;DHT22;1827;50.534;8.316;2022-11-11T19:01:24;5.80;99.90
3626;DHT22;1827;50.534;8.316;2022-11-11T19:04:08;5.80;99.90
3626;DHT22;1827;50.534;8.316;2022-11-11T19:06:53;5.90;99.90
3626;DHT22;1827;50.534;8.316;2022-11-11T19:09:37;5.80;99.90
3626;DHT22;1827;50.534;8.316;2022-11-11T19:12:22;5.80;99.90
3626;DHT22;1827;50.534;8.316;2022-11-11T19:15:06;5.90;99.90
3626;DHT22;1827;50.534;8.316;2022-11-11T19:17:50;5.80;99.90
3626;DHT22;1827;50.534;8.316;2022-11-11T19:20:35;5.90;99.90
3626;DHT22;1827;50.534;8.316;2022-11-11T19:23:19;5.70;99.90
3626;DHT22;1827;50.534;8.316;2022-11-11T19:26:04;5.80;99.90
3626;DHT22;1827;50.534;8.316;2022-11-11T19:28:48;5.90;99.90
3626;DHT22;1827;50.534;8.316;2022-11-11T19:31:32;5.80;99.90
3626;DHT22;1827;50.534;8.316;2022-11-11T19:34:16;5.90;99.90
3626;DHT22;1827;50.534;8.316;2022-11-11T19:37:01;5.80;99.90
3626;DHT22;1827;50.534;8.316;2022-11-11T19:39:45;5.70;99.90
3626;DHT22;1827;50.534;8.316;2022-11-11T19:42:30;5.70;99.90
3626;DHT22;1827;50.534;8.316;2022-11-11T19:45:14;5.70;99.90
3626;DHT22;1827;50.534;8.316;2022-11-11T19:47:58;5.60;99.90
3626;DHT22;1827;50.534;8.316;2022-11-11T19:50:43;5.60;99.90
3626;DHT22;1827;50.534;8.316;2022-11-11T19:53:27;5.50;99.90
3626;DHT22;1827;50.534;8.316;2022-11-11T19:56:12;5.50;99.90
3626;DHT22;1827;50.534;8.316;2022-11-11T19:58:57;5.50;99.90
3626;DHT22;1827;50.534;8.316;2022-11-11T20:01:41;5.50;99.90
3626;DHT22;1827;50.534;8.316;2022-11-11T20:04:26;5.50;99.90
3626;DHT22;1827;50.534;8.316;2022-11-11T20:07:11;5.50;99.90
3626;DHT22;1827;50.534;8.316;2022-11-11T20:09:55;5.50;99.90
3626;DHT22;1827;50.534;8.316;2022-11-11T20:12:40;5.50;99.90
3626;DHT22;1827;50.534;8.316;2022-11-11T20:15:24;5.50;99.90
3626;DHT22;1827;50.534;8.316;2022-11-11T20:18:08;5.50;99.90